Time,TemperatureF,DewpointF,PressureIn,WindDirection,WindDirectionDegrees,WindSpeedMPH,WindSpeedGustMPH,Humidity,HourlyPrecipIn,Conditions,Clouds,dailyrainin,SolarRadiationWatts/m^2,SoftwareType,DateUTC
2013-10-21 00:01:00,33.4,32.9,29.77,ENE,75,0.0,0.0,98,0.00,,FEW,0.07,0.0,WeatherDisplay:10.37,2013-10-21 05:01:00,
2013-10-21 00:06:00,33.4,32.9,29.78,ENE,75,0.0,0.0,98,0.00,,FEW,0.07,0.0,WeatherDisplay:10.37,2013-10-21 05:06:00,
2013-10-21 00:11:00,33.4,32.9,29.78,ENE,71,5.0,5.0,98,0.00,,FEW,0.07,0.0,WeatherDisplay:10.37,2013-10-21 05:11:00,
2013-10-21 00:16:00,33.4,32.9,29.78,NNE,16,6.0,7.0,98,0.00,,FEW,0.07,0.0,WeatherDisplay:10.37,2013-10-21 05:16:00,
2013-10-21 00:21:00,33.4,32.9,29.78,North,353,6.0,7.0,98,0.00,,FEW,0.07,0.0,WeatherDisplay:10.37,2013-10-21 05:21:00,
2013-10-21 00:26:00,33.4,32.9,29.78,NNW,343,5.0,8.0,98,0.00,,FEW,0.07,0.0,WeatherDisplay:10.37,2013-10-21 05:26:00,
2013-10-21 00:31:00,33.4,32.9,29.78,NNW,343,5.0,9.0,98,0.00,,FEW,0.07,0.0,WeatherDisplay:10.37,2013-10-21 05:31:00,
2013-10-21 00:36:00,33.4,32.9,29.78,NNW,341,6.0,8.0,98,0.00,,FEW,0.07,0.0,WeatherDisplay:10.37,2013-10-21 05:36:00,
2013-10-21 00:41:00,33.5,33.0,29.78,NNW,336,6.0,9.0,98,0.00,,FEW,0.07,0.0,WeatherDisplay:10.37,2013-10-21 05:41:00,
2013-10-21 00:46:00,33.5,33.0,29.78,NNW,332,7.0,7.0,98,0.00,,FEW,0.07,0.0,WeatherDisplay:10.37,2013-10-21 05:46:00,
2013-10-21 00:51:00,33.5,33.0,29.78,NNW,332,6.0,8.0,98,0.00,,FEW,0.07,0.0,WeatherDisplay:10.37,2013-10-21 05:51:00,
2013-10-21 00:56:00,33.5,33.0,29.78,NW,323,6.0,9.0,98,0.00,,FEW,0.07,0.0,WeatherDisplay:10.37,2013-10-21 05:56:00,
2013-10-21 01:01:00,33.7,33.2,29.79,NW,309,11.5,11.5,98,0.00,,FEW,0.07,0.0,WeatherDisplay:10.37,2013-10-21 06:01:00,
2013-10-21 01:07:00,33.7,33.2,29.79,NW,308,6.9,6.9,98,0.00,,FEW,0.07,0.0,WeatherDisplay:10.37,2013-10-21 06:07:00,
2013-10-21 01:12:00,33.7,33.2,29.79,NW,308,9.2,9.2,98,0.00,,FEW,0.07,0.0,WeatherDisplay:10.37,2013-10-21 06:12:00,
2013-10-21 01:17:00,33.7,33.2,29.79,NW,308,5.8,5.8,98,0.00,,FEW,0.07,0.0,WeatherDisplay:10.37,2013-10-21 06:17:00,
2013-10-21 01:22:00,33.7,33.2,29.79,NW,308,5.8,5.8,98,0.00,,FEW,0.07,0.0,WeatherDisplay:10.37,2013-10-21 06:22:00,
2013-10-21 01:27:00,33.8,33.3,29.79,NW,304,8.1,8.1,98,0.00,,FEW,0.07,0.0,WeatherDisplay:10.37,2013-10-21 06:27:00,
2013-10-21 01:32:00,33.8,33.3,29.80,WNW,296,9.2,9.2,98,0.00,,FEW,0.07,0.0,WeatherDisplay:10.37,2013-10-21 06:32:00,
2013-10-21 01:37:00,33.8,33.3,29.80,WNW,290,11.5,11.5,98,0.00,,FEW,0.07,0.0,WeatherDisplay:10.37,2013-10-21 06:37:00,
2013-10-21 01:43:00,33.7,33.2,29.80,WNW,299,9.2,9.2,98,0.00,,FEW,0.07,0.0,WeatherDisplay:10.37,2013-10-21 06:43:00,
2013-10-21 01:48:00,33.8,33.3,29.80,WNW,296,9.2,9.2,98,0.00,,FEW,0.07,0.0,WeatherDisplay:10.37,2013-10-21 06:48:00,
2013-10-21 01:53:00,33.7,33.2,29.80,WNW,295,8.1,8.1,98,0.00,,FEW,0.07,0.0,WeatherDisplay:10.37,2013-10-21 06:53:00,
2013-10-21 01:58:00,33.7,33.2,29.80,NW,308,8.1,8.1,98,0.00,,FEW,0.07,0.0,WeatherDisplay:10.37,2013-10-21 06:58:00,
2013-10-21 02:03:00,33.7,33.2,29.80,WNW,296,7.0,7.1,98,0.00,,FEW,0.08,0.0,WeatherDisplay:10.37,2013-10-21 07:03:00,
2013-10-21 02:08:00,33.7,33.2,29.81,WNW,290,7.0,7.0,98,0.01,RA,FEW,0.08,0.0,WeatherDisplay:10.37,2013-10-21 07:08:00,
2013-10-21 02:13:00,33.5,33.0,29.81,WNW,294,8.1,8.1,98,0.01,,FEW,0.08,0.0,WeatherDisplay:10.37,2013-10-21 07:13:00,
2013-10-21 02:18:00,33.5,33.0,29.80,WNW,290,11.5,11.5,98,0.01,,FEW,0.08,0.0,WeatherDisplay:10.37,2013-10-21 07:18:00,
2013-10-21 02:24:00,33.5,33.0,29.80,NW,306,11.5,11.5,98,0.01,,FEW,0.08,0.0,WeatherDisplay:10.37,2013-10-21 07:24:00,
2013-10-21 02:29:00,33.4,32.9,29.81,WNW,297,9.2,9.2,98,0.01,,FEW,0.08,0.0,WeatherDisplay:10.37,2013-10-21 07:29:00,
2013-10-21 02:34:00,33.4,32.9,29.81,NNW,342,11.5,11.5,98,0.01,,FEW,0.08,0.0,WeatherDisplay:10.37,2013-10-21 07:34:00,
2013-10-21 02:39:00,33.2,32.7,29.81,NW,317,11.5,11.5,98,0.01,,FEW,0.08,0.0,WeatherDisplay:10.37,2013-10-21 07:39:00,
2013-10-21 02:44:00,33.1,32.6,29.81,WNW,284,9.2,9.2,98,0.01,,FEW,0.08,0.0,WeatherDisplay:10.37,2013-10-21 07:44:00,
2013-10-21 02:49:00,33.1,32.6,29.81,WNW,288,11.5,11.5,98,0.01,,FEW,0.08,0.0,WeatherDisplay:10.37,2013-10-21 07:49:00,
2013-10-21 02:54:00,33.1,32.6,29.82,WNW,283,11.5,11.5,98,0.01,,FEW,0.08,0.0,WeatherDisplay:10.37,2013-10-21 07:54:00,
2013-10-21 03:00:00,33.1,32.6,29.82,WNW,290,11.5,11.5,98,0.01,,FEW,0.08,0.0,WeatherDisplay:10.37,2013-10-21 08:00:00,
2013-10-21 03:05:00,32.9,32.4,29.82,WNW,292,7.0,7.0,98,0.00,,FEW,0.08,0.0,WeatherDisplay:10.37,2013-10-21 08:05:00,
2013-10-21 03:10:00,32.9,32.4,29.82,WNW,303,15.0,15.0,98,0.00,,FEW,0.08,0.0,WeatherDisplay:10.37,2013-10-21 08:10:00,
2013-10-21 03:15:00,32.9,32.4,29.82,West,275,11.5,11.5,98,0.00,,FEW,0.08,0.0,WeatherDisplay:10.37,2013-10-21 08:15:00,
2013-10-21 03:20:00,32.8,32.3,29.82,WNW,292,10.4,10.4,98,0.00,,FEW,0.08,0.0,WeatherDisplay:10.37,2013-10-21 08:20:00,
2013-10-21 03:25:00,32.8,32.3,29.82,NW,305,11.5,11.5,98,0.00,,FEW,0.08,0.0,WeatherDisplay:10.37,2013-10-21 08:25:00,
2013-10-21 03:30:00,32.7,32.2,29.82,WNW,294,11.5,11.5,98,0.00,,FEW,0.08,0.0,WeatherDisplay:10.37,2013-10-21 08:30:00,
2013-10-21 03:35:00,32.7,32.2,29.82,West,261,11.5,11.5,98,0.00,,FEW,0.08,0.0,WeatherDisplay:10.37,2013-10-21 08:35:00,
2013-10-21 03:41:00,32.8,32.3,29.82,West,266,11.5,11.5,98,0.00,,FEW,0.08,0.0,WeatherDisplay:10.37,2013-10-21 08:41:00,
2013-10-21 03:46:00,32.8,32.3,29.82,WNW,288,11.5,11.5,98,0.00,,FEW,0.08,0.0,WeatherDisplay:10.37,2013-10-21 08:46:00,
2013-10-21 03:51:00,32.8,32.3,29.83,West,266,13.8,13.8,98,0.00,,FEW,0.08,0.0,WeatherDisplay:10.37,2013-10-21 08:51:00,
2013-10-21 03:56:00,32.8,32.3,29.83,West,266,10.4,10.4,98,0.00,,FEW,0.08,0.0,WeatherDisplay:10.37,2013-10-21 08:56:00,
2013-10-21 04:01:00,32.8,32.3,29.83,West,266,11.5,11.5,98,0.00,,FEW,0.08,0.0,WeatherDisplay:10.37,2013-10-21 09:01:00,
2013-10-21 04:06:00,32.8,32.3,29.83,WNW,292,10.4,10.4,98,0.00,,FEW,0.08,0.0,WeatherDisplay:10.37,2013-10-21 09:06:00,
2013-10-21 04:11:00,32.7,32.2,29.83,WNW,289,8.0,12.0,98,0.00,,FEW,0.08,0.0,WeatherDisplay:10.37,2013-10-21 09:11:00,
2013-10-21 04:16:00,32.7,32.2,29.83,WNW,296,8.1,8.1,98,0.00,,FEW,0.08,0.0,WeatherDisplay:10.37,2013-10-21 09:16:00,
2013-10-21 04:21:00,32.7,32.2,29.83,WNW,283,5.0,12.0,98,0.00,,FEW,0.08,0.0,WeatherDisplay:10.37,2013-10-21 09:21:00,
2013-10-21 04:26:00,32.7,32.2,29.83,West,281,0.0,0.0,98,0.00,,FEW,0.08,0.0,WeatherDisplay:10.37,2013-10-21 09:26:00,
2013-10-21 04:31:00,32.7,31.9,29.84,WNW,284,0.0,0.0,97,0.00,,FEW,0.08,0.0,WeatherDisplay:10.37,2013-10-21 09:31:00,
2013-10-21 04:36:00,32.5,31.7,29.84,West,281,0.0,0.0,97,0.00,,FEW,0.08,0.0,WeatherDisplay:10.37,2013-10-21 09:36:00,
2013-10-21 04:41:00,32.5,31.7,29.84,WNW,283,0.0,0.0,97,0.00,,FEW,0.08,0.0,WeatherDisplay:10.37,2013-10-21 09:41:00,
2013-10-21 04:46:00,32.5,31.7,29.84,WNW,282,0.0,0.0,97,0.00,,FEW,0.08,0.0,WeatherDisplay:10.37,2013-10-21 09:46:00,
2013-10-21 04:51:00,32.5,31.7,29.84,WNW,285,0.0,0.0,97,0.00,,FEW,0.08,0.0,WeatherDisplay:10.37,2013-10-21 09:51:00,
2013-10-21 04:56:00,32.5,31.7,29.84,West,278,0.0,0.0,97,0.00,,FEW,0.08,0.0,WeatherDisplay:10.37,2013-10-21 09:56:00,
2013-10-21 05:01:00,32.4,31.6,29.84,West,280,0.0,0.0,97,0.00,,FEW,0.08,0.0,WeatherDisplay:10.37,2013-10-21 10:01:00,
2013-10-21 05:06:00,32.2,31.4,29.84,West,281,0.0,0.0,97,0.00,,FEW,0.08,0.0,WeatherDisplay:10.37,2013-10-21 10:06:00,
2013-10-21 05:11:00,32.1,31.3,29.84,West,281,0.0,0.0,97,0.00,,FEW,0.08,0.0,WeatherDisplay:10.37,2013-10-21 10:11:00,
2013-10-21 05:16:00,31.9,31.1,29.84,WNW,286,0.0,0.0,97,0.00,,FEW,0.08,0.0,WeatherDisplay:10.37,2013-10-21 10:16:00,
2013-10-21 05:21:00,31.9,30.9,29.84,West,279,0.0,0.0,96,0.00,,FEW,0.08,0.0,WeatherDisplay:10.37,2013-10-21 10:21:00,
2013-10-21 05:26:00,31.9,30.9,29.84,WSW,252,0.0,0.0,96,0.00,,FEW,0.08,0.0,WeatherDisplay:10.37,2013-10-21 10:26:00,
2013-10-21 05:31:00,31.9,30.9,29.84,West,276,0.0,0.0,96,0.00,,FEW,0.08,0.0,WeatherDisplay:10.37,2013-10-21 10:31:00,
2013-10-21 05:36:00,31.8,30.8,29.85,West,276,0.0,0.0,96,0.00,,FEW,0.08,0.0,WeatherDisplay:10.37,2013-10-21 10:36:00,
2013-10-21 05:41:00,31.6,30.6,29.85,West,273,0.0,0.0,96,0.00,,FEW,0.08,0.0,WeatherDisplay:10.37,2013-10-21 10:41:00,
2013-10-21 05:46:00,31.6,30.6,29.85,West,274,0.0,0.0,96,0.00,,FEW,0.08,0.0,WeatherDisplay:10.37,2013-10-21 10:46:00,
2013-10-21 05:51:00,31.5,30.5,29.85,West,273,0.0,0.0,96,0.00,,FEW,0.08,0.0,WeatherDisplay:10.37,2013-10-21 10:51:00,
2013-10-21 05:56:00,31.5,30.5,29.85,West,276,0.0,0.0,96,0.00,,FEW,0.08,0.0,WeatherDisplay:10.37,2013-10-21 10:56:00,
2013-10-21 06:01:00,31.2,29.9,29.85,West,266,0.0,0.0,95,0.00,,FEW,0.08,0.0,WeatherDisplay:10.37,2013-10-21 11:01:00,
2013-10-21 06:06:00,31.0,29.7,29.85,West,276,0.0,0.0,95,0.00,,FEW,0.08,0.0,WeatherDisplay:10.37,2013-10-21 11:06:00,
2013-10-21 06:11:00,30.9,29.1,29.85,WNW,283,0.0,0.0,93,0.00,,FEW,0.08,0.0,WeatherDisplay:10.37,2013-10-21 11:11:00,
2013-10-21 06:16:00,30.7,28.9,29.85,WNW,291,0.0,0.0,93,0.00,,FEW,0.08,0.0,WeatherDisplay:10.37,2013-10-21 11:16:00,
2013-10-21 06:21:00,30.7,28.9,29.85,WNW,286,0.0,0.0,93,0.00,,FEW,0.08,0.0,WeatherDisplay:10.37,2013-10-21 11:21:00,
2013-10-21 06:26:00,30.6,28.6,29.85,West,278,0.0,0.0,92,0.00,,FEW,0.08,0.0,WeatherDisplay:10.37,2013-10-21 11:26:00,
2013-10-21 06:31:00,30.6,28.6,29.85,West,278,0.0,0.0,92,0.00,,FEW,0.08,0.0,WeatherDisplay:10.37,2013-10-21 11:31:00,
2013-10-21 06:36:00,30.6,28.6,29.85,WNW,290,0.0,0.0,92,0.00,,FEW,0.08,0.0,WeatherDisplay:10.37,2013-10-21 11:36:00,
2013-10-21 06:41:00,30.6,28.6,29.85,West,276,0.0,0.0,92,0.00,,FEW,0.08,0.0,WeatherDisplay:10.37,2013-10-21 11:41:00,
2013-10-21 06:46:00,30.6,28.6,29.85,West,274,0.0,0.0,92,0.00,,FEW,0.08,0.0,WeatherDisplay:10.37,2013-10-21 11:46:00,
2013-10-21 06:51:00,30.6,28.6,29.85,West,273,0.0,0.0,92,0.00,,FEW,0.08,0.0,WeatherDisplay:10.37,2013-10-21 11:51:00,
2013-10-21 06:56:00,30.6,28.6,29.85,West,271,0.0,0.0,92,0.00,,FEW,0.08,0.0,WeatherDisplay:10.37,2013-10-21 11:56:00,
2013-10-21 07:01:00,30.6,28.6,29.85,West,274,0.0,0.0,92,0.00,RA,FEW,0.00,0.0,WeatherDisplay:10.37,2013-10-21 12:01:00,
2013-10-21 07:06:00,30.6,28.6,29.85,West,272,0.0,0.0,92,0.00,RA,FEW,0.00,0.0,WeatherDisplay:10.37,2013-10-21 12:06:00,
2013-10-21 07:11:00,30.6,28.6,29.85,WNW,290,0.0,0.0,92,0.00,RA,FEW,0.00,0.0,WeatherDisplay:10.37,2013-10-21 12:11:00,
2013-10-21 07:16:00,30.6,28.6,29.85,West,279,0.0,0.0,92,0.00,CLR,FEW,0.00,0.0,WeatherDisplay:10.37,2013-10-21 12:16:00,
2013-10-21 07:21:00,30.6,28.6,29.85,West,270,0.0,0.0,92,0.00,CLR,FEW,0.00,0.0,WeatherDisplay:10.37,2013-10-21 12:21:00,
2013-10-21 07:26:00,30.6,28.6,29.85,West,265,0.0,0.0,92,0.00,CLR,FEW,0.00,0.0,WeatherDisplay:10.37,2013-10-21 12:26:00,
2013-10-21 07:31:00,30.6,28.8,29.85,West,266,0.0,0.0,93,0.00,CLR,FEW,0.00,0.0,WeatherDisplay:10.37,2013-10-21 12:31:00,
2013-10-21 07:36:00,30.6,28.6,29.85,West,269,0.0,0.0,92,0.00,CLR,FEW,0.00,0.0,WeatherDisplay:10.37,2013-10-21 12:36:00,
2013-10-21 07:41:00,30.6,28.6,29.85,West,262,0.0,0.0,92,0.00,CLR,FEW,0.00,0.0,WeatherDisplay:10.37,2013-10-21 12:41:00,
2013-10-21 07:46:00,30.6,28.8,29.85,WSW,255,0.0,0.0,93,0.00,CLR,FEW,0.00,0.0,WeatherDisplay:10.37,2013-10-21 12:46:00,
2013-10-21 07:51:00,30.6,28.8,29.85,West,275,0.0,0.0,93,0.00,CLR,FEW,0.00,0.0,WeatherDisplay:10.37,2013-10-21 12:51:00,
2013-10-21 07:56:00,30.6,28.8,29.85,West,273,0.0,0.0,93,0.00,CLR,FEW,0.00,0.0,WeatherDisplay:10.37,2013-10-21 12:56:00,
2013-10-21 08:01:00,30.7,28.9,29.85,West,268,0.0,0.0,93,0.00,CLR,FEW,0.00,0.0,WeatherDisplay:10.37,2013-10-21 13:01:00,
2013-10-21 08:06:00,30.7,28.9,29.85,West,264,0.0,0.0,93,0.00,CLR,FEW,0.00,0.0,WeatherDisplay:10.37,2013-10-21 13:06:00,
2013-10-21 08:11:00,30.7,28.9,29.86,West,265,0.0,0.0,93,0.00,CLR,FEW,0.00,0.0,WeatherDisplay:10.37,2013-10-21 13:11:00,
2013-10-21 08:16:00,30.8,29.0,29.86,West,263,0.0,0.0,93,0.00,CLR,FEW,0.00,0.0,WeatherDisplay:10.37,2013-10-21 13:16:00,
2013-10-21 08:21:00,30.9,29.1,29.86,West,275,0.0,0.0,93,0.00,CLR,FEW,0.00,0.0,WeatherDisplay:10.37,2013-10-21 13:21:00,
2013-10-21 08:26:00,30.9,29.1,29.86,West,267,0.0,0.0,93,0.00,CLR,FEW,0.00,0.0,WeatherDisplay:10.37,2013-10-21 13:26:00,
2013-10-21 08:31:00,30.9,29.1,29.86,West,264,0.0,0.0,93,0.00,CLR,FEW,0.00,0.0,WeatherDisplay:10.37,2013-10-21 13:31:00,
2013-10-21 08:36:00,30.9,28.9,29.86,West,263,0.0,0.0,92,0.00,CLR,FEW,0.00,0.0,WeatherDisplay:10.37,2013-10-21 13:36:00,
2013-10-21 08:41:00,30.9,28.9,29.86,West,265,0.0,0.0,92,0.00,CLR,FEW,0.00,0.0,WeatherDisplay:10.37,2013-10-21 13:41:00,
2013-10-21 08:46:00,30.9,28.9,29.86,West,265,0.0,0.0,92,0.00,CLR,FEW,0.00,0.0,WeatherDisplay:10.37,2013-10-21 13:46:00,
2013-10-21 08:51:00,30.9,28.9,29.86,West,270,0.0,0.0,92,0.00,,FEW,0.00,0.0,WeatherDisplay:10.37,2013-10-21 13:51:00,
2013-10-21 09:01:00,30.9,28.9,29.86,West,275,0.0,0.0,92,0.00,,FEW,0.00,0.0,WeatherDisplay:10.37,2013-10-21 14:01:00,
2013-10-21 09:06:00,30.9,28.9,29.87,West,277,0.0,0.0,92,0.00,OVC,FEW,0.00,0.0,WeatherDisplay:10.37,2013-10-21 14:06:00,
2013-10-21 09:10:00,30.9,28.6,29.86,West,272,0.0,0.0,91,0.00,OVC,FEW,0.00,0.0,WeatherDisplay:10.37,2013-10-21 14:10:00,
2013-10-21 09:23:00,30.9,28.6,29.87,West,266,16.1,0.0,91,0.00,OVC,FEW,0.00,0.0,WeatherDisplay:10.37,2013-10-21 14:23:00,
2013-10-21 09:28:00,30.9,28.6,29.87,West,266,0.0,0.0,91,0.00,OVC,FEW,0.00,0.0,WeatherDisplay:10.37,2013-10-21 14:28:00,
2013-10-21 09:33:00,30.9,28.6,29.87,West,279,0.0,0.0,91,0.00,OVC,FEW,0.00,0.0,WeatherDisplay:10.37,2013-10-21 14:33:00,
2013-10-21 09:39:00,30.9,28.3,29.87,West,275,0.0,0.0,90,0.00,OVC,FEW,0.00,0.0,WeatherDisplay:10.37,2013-10-21 14:39:00,
2013-10-21 09:44:00,31.0,28.4,29.87,WSW,246,0.0,0.0,90,0.00,OVC,FEW,0.00,0.0,WeatherDisplay:10.37,2013-10-21 14:44:00,
2013-10-21 09:49:00,31.0,28.4,29.87,WSW,256,0.0,0.0,90,0.00,OVC,FEW,0.00,0.0,WeatherDisplay:10.37,2013-10-21 14:49:00,
2013-10-21 09:54:00,31.0,28.1,29.87,WNW,285,0.0,0.0,89,0.00,OVC,FEW,0.00,0.0,WeatherDisplay:10.37,2013-10-21 14:54:00,
2013-10-21 09:59:00,31.2,28.3,29.87,WSW,241,0.0,0.0,89,0.00,OVC,FEW,0.00,0.0,WeatherDisplay:10.37,2013-10-21 14:59:00,
2013-10-21 10:04:00,31.3,28.4,29.87,West,266,0.0,0.0,89,0.00,OVC,FEW,0.00,0.0,WeatherDisplay:10.37,2013-10-21 15:04:00,
2013-10-21 10:09:00,31.3,28.4,29.87,WSW,254,0.0,0.0,89,0.00,OVC,FEW,0.00,0.0,WeatherDisplay:10.37,2013-10-21 15:09:00,
2013-10-21 10:14:00,31.3,28.4,29.87,West,280,0.0,0.0,89,0.00,OVC,FEW,0.00,0.0,WeatherDisplay:10.37,2013-10-21 15:14:00,
2013-10-21 10:20:00,31.3,28.4,29.87,West,266,0.0,0.0,89,0.00,OVC,FEW,0.00,0.0,WeatherDisplay:10.37,2013-10-21 15:20:00,
2013-10-21 10:25:00,31.3,28.4,29.87,West,266,0.0,0.0,89,0.00,OVC,FEW,0.00,0.0,WeatherDisplay:10.37,2013-10-21 15:25:00,
2013-10-21 10:30:00,31.3,28.4,29.87,West,266,0.0,0.0,89,0.00,OVC,FEW,0.00,0.0,WeatherDisplay:10.37,2013-10-21 15:30:00,
2013-10-21 10:35:00,31.2,28.3,29.87,WSW,241,0.0,0.0,89,0.00,OVC,FEW,0.00,0.0,WeatherDisplay:10.37,2013-10-21 15:35:00,
2013-10-21 10:40:00,31.2,28.3,29.87,West,266,0.0,0.0,89,0.00,OVC,FEW,0.00,0.0,WeatherDisplay:10.37,2013-10-21 15:40:00,
2013-10-21 10:45:00,31.2,28.3,29.87,WSW,256,0.0,0.0,89,0.00,OVC,FEW,0.00,0.0,WeatherDisplay:10.37,2013-10-21 15:45:00,
2013-10-21 10:50:00,31.2,28.1,29.87,WSW,252,0.0,0.0,88,0.00,OVC,FEW,0.00,0.0,WeatherDisplay:10.37,2013-10-21 15:50:00,
2013-10-21 10:56:00,31.3,28.4,29.87,West,266,0.0,0.0,89,0.00,OVC,FEW,0.00,0.0,WeatherDisplay:10.37,2013-10-21 15:56:00,
2013-10-21 11:01:00,31.5,28.4,29.87,West,266,0.0,0.0,88,0.00,OVC,FEW,0.00,0.0,WeatherDisplay:10.37,2013-10-21 16:01:00,
2013-10-21 11:06:00,31.6,28.2,29.87,WNW,283,0.0,0.0,87,0.00,OVC,FEW,0.00,0.0,WeatherDisplay:10.37,2013-10-21 16:06:00,
2013-10-21 11:11:00,31.8,28.4,29.87,West,279,0.0,0.0,87,0.00,OVC,FEW,0.00,0.0,WeatherDisplay:10.37,2013-10-21 16:11:00,
2013-10-21 11:16:00,31.9,28.5,29.87,West,277,0.0,0.0,87,0.00,OVC,FEW,0.00,0.0,WeatherDisplay:10.37,2013-10-21 16:16:00,
2013-10-21 11:21:00,32.1,28.4,29.87,WSW,246,0.0,0.0,86,0.00,OVC,FEW,0.00,0.0,WeatherDisplay:10.37,2013-10-21 16:21:00,
2013-10-21 11:26:00,32.2,27.9,29.87,West,259,0.0,0.0,84,0.00,OVC,FEW,0.00,0.0,WeatherDisplay:10.37,2013-10-21 16:26:00,
2013-10-21 11:31:00,32.2,27.6,29.87,West,263,0.0,0.0,83,0.00,OVC,FEW,0.00,0.0,WeatherDisplay:10.37,2013-10-21 16:31:00,
2013-10-21 11:36:00,32.4,28.1,29.87,West,262,0.0,0.0,84,0.00,OVC,FEW,0.00,0.0,WeatherDisplay:10.37,2013-10-21 16:36:00,
2013-10-21 11:41:00,32.4,27.8,29.87,West,261,0.0,0.0,83,0.00,OVC,FEW,0.00,0.0,WeatherDisplay:10.37,2013-10-21 16:41:00,
2013-10-21 11:46:00,32.4,28.1,29.87,WSW,245,0.0,0.0,84,0.01,RA,FEW,0.01,0.0,WeatherDisplay:10.37,2013-10-21 16:46:00,
2013-10-21 11:52:00,32.4,28.1,29.87,WSW,252,0.0,0.0,84,0.01,RA,FEW,0.01,0.0,WeatherDisplay:10.37,2013-10-21 16:52:00,
2013-10-21 11:57:00,32.5,28.2,29.87,WSW,242,0.0,0.0,84,0.01,OVC,FEW,0.01,0.0,WeatherDisplay:10.37,2013-10-21 16:57:00,
2013-10-21 12:05:00,32.7,28.4,29.86,WSW,255,0.0,0.0,84,0.00,RA,FEW,0.01,0.0,WeatherDisplay:10.37,2013-10-21 17:05:00,
2013-10-21 12:19:00,32.9,28.6,29.86,West,266,0.0,0.0,84,0.01,RA,FEW,0.01,0.0,WeatherDisplay:10.37,2013-10-21 17:19:00,
2013-10-21 12:24:00,33.1,28.8,29.86,WSW,245,0.0,0.0,84,0.02,RA,FEW,0.02,0.0,WeatherDisplay:10.37,2013-10-21 17:24:00,
2013-10-21 12:29:00,33.2,28.6,29.86,West,266,0.0,0.0,83,0.02,OVC,FEW,0.02,0.0,WeatherDisplay:10.37,2013-10-21 17:29:00,
2013-10-21 12:34:00,33.2,28.6,29.86,West,278,0.0,0.0,83,0.02,OVC,FEW,0.02,0.0,WeatherDisplay:10.37,2013-10-21 17:34:00,
2013-10-21 12:40:00,33.2,28.6,29.86,West,261,0.0,0.0,83,0.03,RA,FEW,0.03,0.0,WeatherDisplay:10.37,2013-10-21 17:40:00,
2013-10-21 12:45:00,33.1,28.5,29.85,West,266,0.0,0.0,83,0.03,RA,FEW,0.03,0.0,WeatherDisplay:10.37,2013-10-21 17:45:00,
2013-10-21 12:50:00,32.9,28.6,29.85,West,278,0.0,0.0,84,0.03,OVC,FEW,0.03,0.0,WeatherDisplay:10.37,2013-10-21 17:50:00,
2013-10-21 12:55:00,32.9,28.6,29.85,WSW,243,0.0,0.0,84,0.02,OVC,FEW,0.03,0.0,WeatherDisplay:10.37,2013-10-21 17:55:00,
2013-10-21 13:00:00,32.8,28.2,29.85,WSW,254,0.0,0.0,83,0.03,RA,FEW,0.04,0.0,WeatherDisplay:10.37,2013-10-21 18:00:00,
2013-10-21 13:05:00,32.8,28.5,29.85,WSW,257,0.0,0.0,84,0.03,RA,FEW,0.04,0.0,WeatherDisplay:10.37,2013-10-21 18:05:00,
2013-10-21 13:10:00,32.8,28.5,29.85,West,275,0.0,0.0,84,0.03,OVC,FEW,0.04,0.0,WeatherDisplay:10.37,2013-10-21 18:10:00,
2013-10-21 13:16:00,32.7,28.1,29.84,West,275,0.0,0.0,83,0.04,RA,FEW,0.05,0.0,WeatherDisplay:10.37,2013-10-21 18:16:00,
2013-10-21 13:21:00,32.7,28.7,29.84,SW,232,0.0,0.0,85,0.03,RA,FEW,0.05,0.0,WeatherDisplay:10.37,2013-10-21 18:21:00,
2013-10-21 13:26:00,32.5,28.5,29.84,West,279,0.0,0.0,85,0.03,OVC,FEW,0.05,0.0,WeatherDisplay:10.37,2013-10-21 18:26:00,
2013-10-21 13:31:00,32.7,29.0,29.84,West,276,0.0,0.0,86,0.03,OVC,FEW,0.05,0.0,WeatherDisplay:10.37,2013-10-21 18:31:00,
2013-10-21 13:36:00,32.4,28.1,29.84,WNW,282,0.0,0.0,84,0.03,OVC,FEW,0.05,0.0,WeatherDisplay:10.37,2013-10-21 18:36:00,
2013-10-21 13:40:00,32.7,29.0,29.84,West,269,0.0,0.0,86,0.00,OVC,FEW,0.05,0.0,WeatherDisplay:10.37,2013-10-21 18:40:00,
2013-10-21 13:50:00,32.7,29.3,29.83,West,268,0.0,0.0,87,0.00,OVC,FEW,0.05,0.0,WeatherDisplay:10.37,2013-10-21 18:50:00,
2013-10-21 13:55:00,32.7,29.0,29.83,West,270,0.0,0.0,86,0.00,OVC,FEW,0.05,0.0,WeatherDisplay:10.37,2013-10-21 18:55:00,
2013-10-21 14:04:00,32.2,28.8,29.83,WSW,248,0.0,0.0,87,0.02,OVC,FEW,0.05,0.0,WeatherDisplay:10.37,2013-10-21 19:04:00,
2013-10-21 14:09:00,32.1,29.2,29.83,WSW,255,0.0,0.0,89,0.01,OVC,FEW,0.05,0.0,WeatherDisplay:10.37,2013-10-21 19:09:00,
2013-10-21 14:14:00,32.2,29.3,29.83,West,266,0.0,0.0,89,0.01,OVC,FEW,0.05,0.0,WeatherDisplay:10.37,2013-10-21 19:14:00,
2013-10-21 14:20:00,32.2,29.3,29.83,WSW,242,0.0,0.0,89,0.01,OVC,FEW,0.05,0.0,WeatherDisplay:10.37,2013-10-21 19:20:00,
2013-10-21 14:25:00,32.4,29.2,29.83,West,266,0.0,0.0,88,0.01,RA,FEW,0.06,0.0,WeatherDisplay:10.37,2013-10-21 19:25:00,
2013-10-21 14:30:00,32.4,29.2,29.83,WSW,250,0.0,0.0,88,0.01,RA,FEW,0.06,0.0,WeatherDisplay:10.37,2013-10-21 19:30:00,
2013-10-21 14:35:00,32.2,29.0,29.83,WSW,254,0.0,0.0,88,0.01,OVC,FEW,0.06,0.0,WeatherDisplay:10.37,2013-10-21 19:35:00,
2013-10-21 14:40:00,32.4,29.5,29.83,NW,305,0.0,0.0,89,0.01,OVC,FEW,0.06,0.0,WeatherDisplay:10.37,2013-10-21 19:40:00,
2013-10-21 14:45:00,32.2,29.0,29.82,WSW,243,0.0,0.0,88,0.02,RA,FEW,0.07,0.0,WeatherDisplay:10.37,2013-10-21 19:45:00,
2013-10-21 14:50:00,32.2,29.0,29.83,West,276,0.0,0.0,88,0.02,RA,FEW,0.07,0.0,WeatherDisplay:10.37,2013-10-21 19:50:00,
2013-10-21 14:55:00,32.1,28.9,29.83,West,279,0.0,0.0,88,0.02,OVC,FEW,0.07,0.0,WeatherDisplay:10.37,2013-10-21 19:55:00,
2013-10-21 15:01:00,31.9,28.8,29.83,West,277,0.0,0.0,88,0.02,OVC,FEW,0.07,0.0,WeatherDisplay:10.37,2013-10-21 20:01:00,
2013-10-21 15:06:00,31.9,29.0,29.83,WSW,243,0.0,0.0,89,0.02,OVC,FEW,0.07,0.0,WeatherDisplay:10.37,2013-10-21 20:06:00,
2013-10-21 15:11:00,32.1,29.5,29.83,West,266,0.0,0.0,90,0.02,OVC,FEW,0.07,0.0,WeatherDisplay:10.37,2013-10-21 20:11:00,
2013-10-21 15:16:00,31.9,29.3,29.82,West,266,0.0,0.0,90,0.02,OVC,FEW,0.07,0.0,WeatherDisplay:10.37,2013-10-21 20:16:00,
2013-10-21 15:21:00,31.9,28.8,29.82,West,261,0.0,0.0,88,0.02,OVC,FEW,0.07,0.0,WeatherDisplay:10.37,2013-10-21 20:21:00,
2013-10-21 15:26:00,32.1,29.2,29.83,West,266,0.0,0.0,89,0.01,OVC,FEW,0.07,0.0,WeatherDisplay:10.37,2013-10-21 20:26:00,
2013-10-21 15:31:00,32.1,29.2,29.83,WSW,256,0.0,0.0,89,0.00,OVC,FEW,0.07,0.0,WeatherDisplay:10.37,2013-10-21 20:31:00,
2013-10-21 15:36:00,32.1,28.9,29.83,WSW,258,0.0,0.0,88,0.00,OVC,FEW,0.07,0.0,WeatherDisplay:10.37,2013-10-21 20:36:00,
2013-10-21 15:41:00,32.2,29.3,29.83,West,267,0.0,0.0,89,0.00,OVC,FEW,0.07,0.0,WeatherDisplay:10.37,2013-10-21 20:41:00,
2013-10-21 15:46:00,32.2,29.3,29.83,West,266,0.0,0.0,89,0.00,OVC,FEW,0.07,0.0,WeatherDisplay:10.37,2013-10-21 20:46:00,
2013-10-21 15:51:00,32.2,29.3,29.83,West,271,0.0,0.0,89,0.00,OVC,FEW,0.07,0.0,WeatherDisplay:10.37,2013-10-21 20:51:00,
2013-10-21 15:56:00,32.2,29.3,29.83,West,267,0.0,0.0,89,0.00,OVC,FEW,0.07,0.0,WeatherDisplay:10.37,2013-10-21 20:56:00,
2013-10-21 16:01:00,32.1,29.2,29.83,West,264,0.0,0.0,89,0.00,OVC,FEW,0.07,0.0,WeatherDisplay:10.37,2013-10-21 21:01:00,
2013-10-21 16:06:00,32.1,29.5,29.83,West,259,0.0,0.0,90,0.00,OVC,FEW,0.07,0.0,WeatherDisplay:10.37,2013-10-21 21:06:00,
2013-10-21 16:11:00,32.1,29.5,29.83,West,261,0.0,0.0,90,0.00,OVC,FEW,0.07,0.0,WeatherDisplay:10.37,2013-10-21 21:11:00,
2013-10-21 16:16:00,32.1,29.5,29.83,West,270,0.0,0.0,90,0.00,RA,FEW,0.08,0.0,WeatherDisplay:10.37,2013-10-21 21:16:00,
2013-10-21 16:21:00,31.9,29.3,29.83,WSW,254,0.0,0.0,90,0.01,RA,FEW,0.08,0.0,WeatherDisplay:10.37,2013-10-21 21:21:00,
2013-10-21 16:26:00,31.9,29.6,29.83,WSW,255,0.0,0.0,91,0.00,OVC,FEW,0.08,0.0,WeatherDisplay:10.37,2013-10-21 21:26:00,
2013-10-21 16:31:00,31.9,29.6,29.83,WSW,255,0.0,0.0,91,0.00,OVC,FEW,0.08,0.0,WeatherDisplay:10.37,2013-10-21 21:31:00,
2013-10-21 16:36:00,31.9,29.6,29.83,WSW,258,0.0,0.0,91,0.00,OVC,FEW,0.08,0.0,WeatherDisplay:10.37,2013-10-21 21:36:00,
2013-10-21 16:41:00,31.9,29.6,29.83,WSW,257,0.0,0.0,91,0.00,OVC,FEW,0.08,0.0,WeatherDisplay:10.37,2013-10-21 21:41:00,
2013-10-21 16:46:00,31.9,29.6,29.83,West,261,0.0,0.0,91,0.00,OVC,FEW,0.08,0.0,WeatherDisplay:10.37,2013-10-21 21:46:00,
2013-10-21 16:51:00,31.9,29.6,29.83,West,262,0.0,0.0,91,0.00,OVC,FEW,0.08,0.0,WeatherDisplay:10.37,2013-10-21 21:51:00,
2013-10-21 16:56:00,31.8,29.2,29.83,West,268,0.0,0.0,90,0.00,OVC,FEW,0.08,0.0,WeatherDisplay:10.37,2013-10-21 21:56:00,
2013-10-21 17:01:00,31.6,29.0,29.83,West,260,0.0,0.0,90,0.00,,FEW,0.08,0.0,WeatherDisplay:10.37,2013-10-21 22:01:00,
2013-10-21 17:05:00,31.6,28.7,29.83,West,263,0.0,0.0,89,0.00,RA,FEW,0.08,0.0,WeatherDisplay:10.37,2013-10-21 22:05:00,
2013-10-21 17:16:00,31.5,28.6,29.84,West,266,0.0,0.0,89,0.01,RA,FEW,0.08,0.0,WeatherDisplay:10.37,2013-10-21 22:16:00,
2013-10-21 17:21:00,31.5,28.9,29.84,WSW,254,0.0,0.0,90,0.00,,FEW,0.08,0.0,WeatherDisplay:10.37,2013-10-21 22:21:00,
2013-10-21 17:26:00,31.5,28.9,29.84,West,259,0.0,0.0,90,0.00,,FEW,0.08,0.0,WeatherDisplay:10.37,2013-10-21 22:26:00,
2013-10-21 17:31:00,31.5,28.9,29.84,West,262,0.0,0.0,90,0.00,,FEW,0.08,0.0,WeatherDisplay:10.37,2013-10-21 22:31:00,
2013-10-21 17:36:00,31.5,28.9,29.84,West,261,0.0,0.0,90,0.00,,FEW,0.08,0.0,WeatherDisplay:10.37,2013-10-21 22:36:00,
2013-10-21 17:41:00,31.5,28.9,29.84,West,259,0.0,16.0,90,0.00,,FEW,0.08,0.0,WeatherDisplay:10.37,2013-10-21 22:41:00,
2013-10-21 17:46:00,31.5,28.9,29.83,WSW,255,0.0,0.0,90,0.00,,FEW,0.08,0.0,WeatherDisplay:10.37,2013-10-21 22:46:00,
2013-10-21 17:51:00,31.5,28.9,29.84,WSW,256,0.0,0.0,90,0.00,,FEW,0.08,0.0,WeatherDisplay:10.37,2013-10-21 22:51:00,
2013-10-21 17:56:00,31.5,28.9,29.84,WSW,253,0.0,0.0,90,0.00,,FEW,0.08,0.0,WeatherDisplay:10.37,2013-10-21 22:56:00,
2013-10-21 18:01:00,31.3,28.7,29.84,WSW,247,0.0,0.0,90,0.00,,FEW,0.08,0.0,WeatherDisplay:10.37,2013-10-21 23:01:00,
2013-10-21 18:06:00,31.3,28.7,29.83,WSW,248,0.0,0.0,90,0.00,,FEW,0.08,0.0,WeatherDisplay:10.37,2013-10-21 23:06:00,
2013-10-21 18:11:00,31.3,28.7,29.84,WSW,244,0.0,0.0,90,0.00,,FEW,0.08,0.0,WeatherDisplay:10.37,2013-10-21 23:11:00,
2013-10-21 18:16:00,31.3,29.0,29.83,WSW,245,0.0,0.0,91,0.00,,FEW,0.08,0.0,WeatherDisplay:10.37,2013-10-21 23:16:00,
2013-10-21 18:21:00,31.3,29.0,29.83,WSW,248,0.0,0.0,91,0.00,,FEW,0.08,0.0,WeatherDisplay:10.37,2013-10-21 23:21:00,
2013-10-21 18:26:00,31.3,29.0,29.83,WSW,253,0.0,0.0,91,0.00,,FEW,0.08,0.0,WeatherDisplay:10.37,2013-10-21 23:26:00,
2013-10-21 18:31:00,31.3,29.0,29.83,WSW,249,0.0,0.0,91,0.00,,FEW,0.08,0.0,WeatherDisplay:10.37,2013-10-21 23:31:00,
2013-10-21 18:36:00,31.2,28.9,29.83,WSW,248,0.0,0.0,91,0.00,,FEW,0.08,0.0,WeatherDisplay:10.37,2013-10-21 23:36:00,
2013-10-21 18:41:00,31.2,29.1,29.83,WSW,256,0.0,0.0,92,0.00,,FEW,0.08,0.0,WeatherDisplay:10.37,2013-10-21 23:41:00,
2013-10-21 18:46:00,31.2,29.1,29.83,WSW,257,0.0,0.0,92,0.00,,FEW,0.08,0.0,WeatherDisplay:10.37,2013-10-21 23:46:00,
2013-10-21 18:51:00,31.2,29.1,29.83,WSW,238,17.3,17.3,92,0.00,,FEW,0.08,0.0,WeatherDisplay:10.37,2013-10-21 23:51:00,
2013-10-21 18:56:00,31.2,29.1,29.83,WSW,256,14.0,21.0,92,0.00,,FEW,0.08,0.0,WeatherDisplay:10.37,2013-10-21 23:56:00,
2013-10-21 19:01:00,31.2,29.1,29.83,WSW,255,15.0,20.0,92,0.00,RA,FEW,0.09,0.0,WeatherDisplay:10.37,2013-10-22 00:01:00,
2013-10-21 19:06:00,31.2,29.1,29.83,WSW,249,15.0,21.0,92,0.00,RA,FEW,0.09,0.0,WeatherDisplay:10.37,2013-10-22 00:06:00,
2013-10-21 19:11:00,31.2,29.1,29.83,WSW,249,14.0,18.0,92,0.00,,FEW,0.09,0.0,WeatherDisplay:10.37,2013-10-22 00:11:00,
2013-10-21 19:16:00,31.0,28.9,29.83,WSW,252,12.0,18.0,92,0.00,,FEW,0.09,0.0,WeatherDisplay:10.37,2013-10-22 00:16:00,
2013-10-21 19:21:00,31.2,29.4,29.83,WSW,250,13.0,18.0,93,0.00,,FEW,0.09,0.0,WeatherDisplay:10.37,2013-10-22 00:21:00,
2013-10-21 19:26:00,31.0,29.2,29.82,WSW,254,18.4,18.4,93,0.01,,FEW,0.09,0.0,WeatherDisplay:10.37,2013-10-22 00:26:00,
2013-10-21 19:31:00,31.0,29.2,29.83,WSW,251,12.0,22.0,93,0.00,,FEW,0.09,0.0,WeatherDisplay:10.37,2013-10-22 00:31:00,
2013-10-21 19:36:00,31.2,29.4,29.83,WSW,257,13.0,20.0,93,0.00,,FEW,0.09,0.0,WeatherDisplay:10.37,2013-10-22 00:36:00,
2013-10-21 19:41:00,31.2,29.4,29.83,West,259,14.0,20.0,93,0.00,,FEW,0.09,0.0,WeatherDisplay:10.37,2013-10-22 00:41:00,
2013-10-21 19:46:00,31.2,29.4,29.83,West,262,13.0,20.0,93,0.00,,FEW,0.09,0.0,WeatherDisplay:10.37,2013-10-22 00:46:00,
2013-10-21 19:51:00,31.2,29.4,29.83,West,262,10.0,20.0,93,0.00,,FEW,0.09,0.0,WeatherDisplay:10.37,2013-10-22 00:51:00,
2013-10-21 19:56:00,31.2,29.7,29.83,West,262,15.0,18.0,94,0.00,,FEW,0.09,0.0,WeatherDisplay:10.37,2013-10-22 00:56:00,
2013-10-21 20:01:00,31.2,29.7,29.82,WSW,254,16.1,16.1,94,0.00,,FEW,0.09,0.0,WeatherDisplay:10.37,2013-10-22 01:01:00,
2013-10-21 20:06:00,31.3,29.8,29.82,West,262,10.0,18.0,94,0.00,,FEW,0.09,0.0,WeatherDisplay:10.37,2013-10-22 01:06:00,
2013-10-21 20:11:00,31.3,29.8,29.83,West,264,16.0,22.0,94,0.00,,FEW,0.09,0.0,WeatherDisplay:10.37,2013-10-22 01:11:00,
2013-10-21 20:15:00,31.3,29.8,29.83,West,266,15.0,21.0,94,0.00,RA,FEW,0.09,0.0,WeatherDisplay:10.37,2013-10-22 01:15:00,
2013-10-21 20:25:00,31.5,30.0,29.83,West,270,12.0,18.0,94,0.00,CLR,FEW,0.09,0.0,WeatherDisplay:10.37,2013-10-22 01:25:00,
2013-10-21 20:30:00,31.5,30.0,29.83,West,270,14.0,19.0,94,0.00,CLR,FEW,0.09,0.0,WeatherDisplay:10.37,2013-10-22 01:30:00,
2013-10-21 20:35:00,31.5,30.0,29.83,West,263,15.0,24.0,94,0.00,RA,FEW,0.09,0.0,WeatherDisplay:10.37,2013-10-22 01:35:00,
2013-10-21 20:46:00,31.6,30.1,29.83,West,271,24.0,24.0,94,0.00,CLR,FEW,0.09,0.0,WeatherDisplay:10.37,2013-10-22 01:46:00,
2013-10-21 20:51:00,31.8,30.3,29.83,West,278,16.1,16.1,94,0.00,,FEW,0.09,0.0,WeatherDisplay:10.37,2013-10-22 01:51:00,
2013-10-21 20:56:00,31.8,30.3,29.83,WSW,256,17.3,17.3,94,0.00,,FEW,0.09,0.0,WeatherDisplay:10.37,2013-10-22 01:56:00,
2013-10-21 21:01:00,31.8,30.3,29.83,WNW,287,18.0,18.0,94,0.00,,,0.09,0.0,WeatherDisplay:10.37,2013-10-22 02:01:00,
2013-10-21 21:06:00,31.8,30.3,29.83,WNW,285,19.6,19.6,94,0.00,,,0.09,0.0,WeatherDisplay:10.37,2013-10-22 02:06:00,
2013-10-21 21:11:00,31.8,30.3,29.83,West,271,18.0,18.0,94,0.00,,,0.09,0.0,WeatherDisplay:10.37,2013-10-22 02:11:00,
2013-10-21 21:16:00,31.9,30.4,29.83,West,266,17.3,17.3,94,0.00,,,0.09,0.0,WeatherDisplay:10.37,2013-10-22 02:16:00,
2013-10-21 21:21:00,31.9,30.4,29.83,WNW,289,21.0,21.0,94,0.00,,,0.09,0.0,WeatherDisplay:10.37,2013-10-22 02:21:00,
2013-10-21 21:26:00,31.9,30.4,29.84,WNW,285,14.0,18.0,94,0.00,,,0.09,0.0,WeatherDisplay:10.37,2013-10-22 02:26:00,
2013-10-21 21:31:00,31.9,30.4,29.84,West,280,13.0,20.0,94,0.00,,,0.09,0.0,WeatherDisplay:10.37,2013-10-22 02:31:00,
2013-10-21 21:36:00,31.9,30.4,29.84,West,274,13.0,18.0,94,0.00,,,0.09,0.0,WeatherDisplay:10.37,2013-10-22 02:36:00,
2013-10-21 21:41:00,31.9,30.6,29.84,WNW,286,13.0,16.0,95,0.00,,,0.09,0.0,WeatherDisplay:10.37,2013-10-22 02:41:00,
2013-10-21 21:46:00,32.1,30.8,29.84,WNW,287,17.3,17.3,95,0.00,,,0.09,0.0,WeatherDisplay:10.37,2013-10-22 02:46:00,
2013-10-21 21:51:00,32.1,30.8,29.84,West,279,12.0,16.0,95,0.00,,,0.09,0.0,WeatherDisplay:10.37,2013-10-22 02:51:00,
2013-10-21 21:56:00,32.1,30.8,29.84,WNW,284,14.0,21.0,95,0.00,,,0.09,0.0,WeatherDisplay:10.37,2013-10-22 02:56:00,
2013-10-21 22:01:00,32.1,30.8,29.84,West,279,12.0,22.0,95,0.00,,,0.09,0.0,WeatherDisplay:10.37,2013-10-22 03:01:00,
2013-10-21 22:06:00,32.2,30.9,29.84,West,281,12.0,18.0,95,0.00,,,0.09,0.0,WeatherDisplay:10.37,2013-10-22 03:06:00,
2013-10-21 22:11:00,32.2,30.9,29.84,WNW,282,12.0,20.0,95,0.00,,,0.09,0.0,WeatherDisplay:10.37,2013-10-22 03:11:00,
2013-10-21 22:16:00,32.2,30.9,29.84,WNW,282,15.0,20.0,95,0.00,,,0.09,0.0,WeatherDisplay:10.37,2013-10-22 03:16:00,
2013-10-21 22:21:00,32.4,31.1,29.84,WNW,282,14.0,14.0,95,0.00,,,0.09,0.0,WeatherDisplay:10.37,2013-10-22 03:21:00,
2013-10-21 22:26:00,32.4,31.1,29.85,WNW,283,14.0,21.0,95,0.00,,,0.09,0.0,WeatherDisplay:10.37,2013-10-22 03:26:00,
2013-10-21 22:31:00,32.4,31.1,29.84,West,281,14.0,21.0,95,0.00,,,0.09,0.0,WeatherDisplay:10.37,2013-10-22 03:31:00,
2013-10-21 22:36:00,32.4,31.1,29.85,WNW,285,13.0,18.0,95,0.00,,,0.09,0.0,WeatherDisplay:10.37,2013-10-22 03:36:00,
2013-10-21 22:41:00,32.4,31.1,29.85,WNW,291,12.0,17.0,95,0.00,,,0.09,0.0,WeatherDisplay:10.37,2013-10-22 03:41:00,
2013-10-21 22:46:00,32.5,31.2,29.84,WNW,286,12.0,20.0,95,0.00,,,0.09,0.0,WeatherDisplay:10.37,2013-10-22 03:46:00,
2013-10-21 22:51:00,32.5,31.2,29.85,West,279,12.0,18.0,95,0.00,,,0.09,0.0,WeatherDisplay:10.37,2013-10-22 03:51:00,
2013-10-21 22:56:00,32.5,31.2,29.85,WNW,283,15.0,20.0,95,0.00,,,0.09,0.0,WeatherDisplay:10.37,2013-10-22 03:56:00,
2013-10-21 23:01:00,32.7,31.4,29.85,WNW,291,16.1,16.1,95,0.00,,,0.09,0.0,WeatherDisplay:10.37,2013-10-22 04:01:00,
2013-10-21 23:02:00,32.7,31.4,29.85,WNW,285,16.1,16.1,95,0.00,,,0.09,0.0,WeatherDisplay:10.37,2013-10-22 04:02:00,
2013-10-21 23:03:00,32.7,31.4,29.85,West,276,18.0,18.0,95,0.00,,,0.09,0.0,WeatherDisplay:10.37,2013-10-22 04:03:00,
2013-10-21 23:08:00,32.7,31.4,29.85,WNW,283,17.0,17.0,95,0.00,,,0.09,0.0,WeatherDisplay:10.37,2013-10-22 04:08:00,
2013-10-21 23:14:00,32.7,31.4,29.85,West,271,15.0,15.0,95,0.00,,,0.09,0.0,WeatherDisplay:10.37,2013-10-22 04:14:00,
2013-10-21 23:19:00,32.7,31.4,29.86,West,271,18.4,18.4,95,0.00,,,0.09,0.0,WeatherDisplay:10.37,2013-10-22 04:19:00,
2013-10-21 23:24:00,32.7,31.4,29.85,NW,306,13.8,13.8,95,0.00,,,0.09,0.0,WeatherDisplay:10.37,2013-10-22 04:24:00,
2013-10-21 23:29:00,32.7,31.4,29.85,WNW,302,16.1,16.1,95,0.00,,,0.09,0.0,WeatherDisplay:10.37,2013-10-22 04:29:00,
2013-10-21 23:34:00,32.7,31.4,29.86,WNW,284,18.4,18.4,95,0.00,,,0.09,0.0,WeatherDisplay:10.37,2013-10-22 04:34:00,
2013-10-21 23:39:00,32.8,31.5,29.85,WNW,294,19.6,19.6,95,0.00,,,0.09,0.0,WeatherDisplay:10.37,2013-10-22 04:39:00,
2013-10-21 23:44:00,32.8,31.5,29.86,WNW,288,18.4,18.4,95,0.00,,,0.09,0.0,WeatherDisplay:10.37,2013-10-22 04:44:00,
2013-10-21 23:50:00,32.8,31.5,29.86,WNW,296,18.0,18.0,95,0.00,,,0.09,0.0,WeatherDisplay:10.37,2013-10-22 04:50:00,
2013-10-21 23:55:00,32.8,31.5,29.86,WNW,289,18.4,18.4,95,0.00,,,0.09,0.0,WeatherDisplay:10.37,2013-10-22 04:55:00,